KCFJ Airport (Crawfordsville Rgnl) Information

FAA: CFJ - ICAO: KCFJ

KCFJ Airport Location

State Indiana
County Montgomery
City Crawfordsville
KCFJ Airport is 4 miles south of Crawfordsville, IN.
Latitude 39-58-28.7000N
Longitude 086-55-15.9000W
Elevation 800ft

KCFJ Airport METARs

METAR KCFJ 201735Z AUTO 00000KT 10SM SCT030 28/20 A2974 RMK AO2 T02760202
Altimeter 29.74"
Temperature 27.6°C (81.7°F)
Wind 0° at 0KT
Clouds scattered at 3,000ft
Visibility 10.0mi
Time observed: 2021-06-20T17:35:00Z

KCFJ Airport Details

Status Operational
Activation June 1945
Ownership Public
Usage Public
Chart ST LOUIS
ATC on-site No
Beacon schedule sunset-sunrise
Beacon color clear green

KCFJ Airport Contacts

Owner CITY OF CRAWFORDSVILLE
Owner address 759 W 400 S, CRAWFORDSVILLE, IN 47933
Owner phone 765-362-0707
Manager JEFFREY DUNGAN
Manager address 4920 N. CO RD. 450 W, CONNERSVILLE, IN 47331
Manager phone 765-969-2586

KCFJ Airport (Crawfordsville Rgnl) Radio Frequencies

KCFJ (Airport) Radio Frequencies

UNICOM 122.8
Common traffic advisory frequency (CTAF) 122.8